createdAt,value
2018-12-27T00:01:28.448Z,97780.84
2018-12-27T00:03:59.999Z,97781.31
2018-12-27T00:06:30.963Z,97782.86
2018-12-27T00:09:01.995Z,97767.84
2018-12-27T00:11:33.720Z,97766.89
2018-12-27T00:14:04.696Z,97772.45
2018-12-27T00:16:35.729Z,97771.99
2018-12-27T00:19:06.700Z,97763.20
2018-12-27T00:21:38.726Z,97763.81
2018-12-27T00:24:09.948Z,97764.66
2018-12-27T00:26:40.923Z,97759.52
2018-12-27T00:29:11.894Z,97761.28
2018-12-27T00:31:44.253Z,97753.64
2018-12-27T00:34:15.557Z,97754.45
2018-12-27T00:36:46.850Z,97752.64
2018-12-27T00:39:18.187Z,97748.88
2018-12-27T00:41:49.462Z,97744.80
2018-12-27T00:44:20.768Z,97749.70
2018-12-27T00:46:53.293Z,97739.82
2018-12-27T00:49:24.634Z,97743.17
2018-12-27T00:51:55.926Z,97738.52
2018-12-27T00:54:27.269Z,97737.48
2018-12-27T00:56:59.740Z,97743.46
2018-12-27T00:59:31.044Z,97744.52
2018-12-27T01:02:02.327Z,97737.68
2018-12-27T01:04:33.694Z,97737.44
2018-12-27T01:07:05.250Z,97737.92
2018-12-27T01:09:36.555Z,97738.23
2018-12-27T01:12:08.083Z,97742.55
2018-12-27T01:14:39.452Z,97741.91
2018-12-27T01:17:10.746Z,97743.13
2018-12-27T01:19:42.369Z,97745.81
2018-12-27T01:22:13.951Z,97741.28
2018-12-27T01:24:46.381Z,97740.23
2018-12-27T01:27:17.653Z,97744.52
2018-12-27T01:29:49.257Z,97738.98
2018-12-27T01:32:21.251Z,97741.70
2018-12-27T01:34:52.566Z,97737.44
2018-12-27T01:37:24.140Z,97739.69
2018-12-27T01:39:55.443Z,97739.61
2018-12-27T01:42:26.878Z,97735.33
2018-12-27T01:44:58.744Z,97729.80
2018-12-27T01:47:30.028Z,97738.31
2018-12-27T01:50:01.438Z,97730.69
2018-12-27T01:52:32.771Z,97732.19
2018-12-27T01:55:04.435Z,97730.27
2018-12-27T01:57:36.040Z,97733.82
2018-12-27T02:00:07.361Z,97725.49
2018-12-27T02:02:39.214Z,97727.84
2018-12-27T02:05:10.522Z,97730.05
2018-12-27T02:07:43.021Z,97730.84
2018-12-27T02:10:14.318Z,97722.89
2018-12-27T02:12:46.492Z,97722.25
2018-12-27T02:15:17.794Z,97719.79
2018-12-27T02:17:49.242Z,97722.84
2018-12-27T02:20:21.549Z,97713.95
2018-12-27T02:22:52.814Z,97711.73
2018-12-27T02:25:24.824Z,97707.76
2018-12-27T02:27:56.103Z,97699.48
2018-12-27T02:30:27.714Z,97700.09
2018-12-27T02:32:59.086Z,97706.13
2018-12-27T02:35:30.366Z,97703.08
2018-12-27T02:38:01.741Z,97700.73
2018-12-27T02:40:33.006Z,97696.50
2018-12-27T02:43:04.282Z,97696.84
2018-12-27T02:45:35.578Z,97695.82
2018-12-27T02:48:06.864Z,97701.10
2018-12-27T02:50:38.506Z,97700.02
2018-12-27T02:53:10.084Z,97695.28
2018-12-27T02:55:41.691Z,97695.47
2018-12-27T02:58:12.970Z,97687.23
2018-12-27T03:00:44.368Z,97680.78
2018-12-27T03:03:15.651Z,97673.05
2018-12-27T03:05:47.245Z,97673.83
2018-12-27T03:08:18.529Z,97667.01
2018-12-27T03:10:49.839Z,97665.57
2018-12-27T03:13:21.200Z,97668.30
2018-12-27T03:15:52.812Z,97660.06
2018-12-27T03:18:24.098Z,97655.66
2018-12-27T03:20:55.868Z,97654.45
2018-12-27T03:23:27.179Z,97652.78
2018-12-27T03:25:58.465Z,97654.53
2018-12-27T03:28:30.443Z,97654.91
2018-12-27T03:31:01.989Z,97650.89
2018-12-27T03:33:33.265Z,97651.84
2018-12-27T03:36:04.554Z,97649.17
2018-12-27T03:38:35.870Z,97650.38
2018-12-27T03:41:07.171Z,97646.66
2018-12-27T03:43:39.048Z,97642.59
2018-12-27T03:46:10.352Z,97644.69
2018-12-27T03:48:43.428Z,97637.48
2018-12-27T03:51:14.898Z,97631.21
2018-12-27T03:53:46.788Z,97628.91
2018-12-27T03:56:18.319Z,97624.47
2018-12-27T03:58:49.961Z,97616.84
2018-12-27T04:01:21.899Z,97616.30
2018-12-27T04:04:01.078Z,97611.78
2018-12-27T04:06:26.236Z,97609.44
2018-12-27T04:08:57.781Z,97609.26
2018-12-27T04:11:29.091Z,97614.42
2018-12-27T04:14:00.365Z,97608.39
2018-12-27T04:16:31.581Z,97605.72
2018-12-27T04:19:02.590Z,97604.20
2018-12-27T04:21:33.635Z,97596.05
2018-12-27T04:24:05.268Z,97593.05
2018-12-27T04:26:36.230Z,97596.38
2018-12-27T04:29:07.186Z,97595.66
2018-12-27T04:31:38.791Z,97597.63
2018-12-27T04:34:10.687Z,97600.56
2018-12-27T04:36:42.703Z,97602.45
2018-12-27T04:39:13.651Z,97600.11
2018-12-27T04:41:45.417Z,97600.48
2018-12-27T04:44:16.895Z,97607.30
2018-12-27T04:46:47.860Z,97606.59
2018-12-27T04:49:19.258Z,97612.11
2018-12-27T04:51:50.609Z,97602.16
2018-12-27T04:54:22.362Z,97605.33
2018-12-27T04:56:53.606Z,97600.73
2018-12-27T04:59:25.889Z,97595.49
2018-12-27T05:01:57.220Z,97586.69
2018-12-27T05:04:28.184Z,97595.38
2018-12-27T05:06:59.408Z,97590.22
2018-12-27T05:09:30.385Z,97595.17
2018-12-27T05:12:01.700Z,97593.41
2018-12-27T05:14:32.726Z,97595.66
2018-12-27T05:17:03.702Z,97593.16
2018-12-27T05:19:34.828Z,97592.16
2018-12-27T05:22:06.126Z,97602.88
2018-12-27T05:24:37.077Z,97598.27
2018-12-27T05:27:08.311Z,97603.70
2018-12-27T05:29:39.569Z,97600.32
2018-12-27T05:32:10.563Z,97606.52
2018-12-27T05:34:41.585Z,97604.25
2018-12-27T05:37:12.545Z,97598.18
2018-12-27T05:39:43.490Z,97595.45
2018-12-27T05:42:14.449Z,97601.27
2018-12-27T05:44:46.492Z,97609.43
2018-12-27T05:47:17.444Z,97618.70
2018-12-27T05:49:48.774Z,97612.78
2018-12-27T05:52:19.750Z,97612.58
2018-12-27T05:54:50.713Z,97613.50
2018-12-27T05:57:22.074Z,97604.70
2018-12-27T05:59:53.050Z,97606.71
2018-12-27T06:02:24.270Z,97603.37
2018-12-27T06:04:56.039Z,97603.23
2018-12-27T06:07:26.995Z,97601.44
2018-12-27T06:09:58.326Z,97595.03
2018-12-27T06:12:29.387Z,97588.89
2018-12-27T06:15:00.341Z,97601.94
2018-12-27T06:17:32.357Z,97599.38
2018-12-27T06:20:03.412Z,97617.14
2018-12-27T06:22:34.366Z,97610.00
2018-12-27T06:25:05.684Z,97599.02
2018-12-27T06:27:36.665Z,97600.67
2018-12-27T06:30:08.084Z,97601.05
2018-12-27T06:32:39.281Z,97604.31
2018-12-27T06:35:10.375Z,97616.98
2018-12-27T06:37:41.738Z,97612.61
2018-12-27T06:40:12.764Z,97609.29
2018-12-27T06:42:44.854Z,97616.59
2018-12-27T06:45:15.910Z,97613.61
2018-12-27T06:47:47.206Z,97619.22
2018-12-27T06:50:18.160Z,97623.66
2018-12-27T06:52:49.698Z,97619.77
2018-12-27T06:55:20.703Z,97614.53
2018-12-27T06:57:51.664Z,97617.47
2018-12-27T07:00:23.000Z,97617.47
2018-12-27T07:02:54.583Z,97615.56
2018-12-27T07:05:25.529Z,97619.14
2018-12-27T07:07:56.490Z,97615.55
2018-12-27T07:10:27.433Z,97610.60
2018-12-27T07:12:58.761Z,97603.66
2018-12-27T07:15:29.807Z,97603.48
2018-12-27T07:18:00.758Z,97604.60
2018-12-27T07:20:31.968Z,97602.09
2018-12-27T07:23:02.927Z,97595.27
2018-12-27T07:25:34.119Z,97600.78
2018-12-27T07:28:05.364Z,97598.19
2018-12-27T07:30:36.324Z,97591.26
2018-12-27T07:33:07.283Z,97600.55
2018-12-27T07:35:38.549Z,97606.53
2018-12-27T07:38:09.551Z,97608.70
2018-12-27T07:40:41.208Z,97608.92
2018-12-27T07:43:12.418Z,97599.45
2018-12-27T07:45:43.378Z,97597.87
2018-12-27T07:48:14.609Z,97605.98
2018-12-27T07:50:46.798Z,97597.55
2018-12-27T07:53:17.760Z,97593.11
2018-12-27T07:55:48.723Z,97591.09
2018-12-27T07:58:19.921Z,97593.28
2018-12-27T08:00:50.872Z,97594.28
2018-12-27T08:03:22.102Z,97592.03
2018-12-27T08:05:53.066Z,97596.22
2018-12-27T08:08:24.039Z,97590.94
2018-12-27T08:10:55.070Z,97587.70
2018-12-27T08:13:26.194Z,97595.57
2018-12-27T08:15:57.510Z,97590.38
2018-12-27T08:18:29.056Z,97587.88
2018-12-27T08:21:00.135Z,97583.66
2018-12-27T08:23:32.292Z,97583.66
2018-12-27T08:26:03.359Z,97590.13
2018-12-27T08:28:34.318Z,97589.53
2018-12-27T08:31:05.634Z,97589.46
2018-12-27T08:33:36.688Z,97585.50
2018-12-27T08:36:08.018Z,97584.33
2018-12-27T08:38:38.982Z,97593.83
2018-12-27T08:41:09.933Z,97588.30
2018-12-27T08:43:40.901Z,97595.06
2018-12-27T08:46:12.701Z,97593.70
2018-12-27T08:48:43.947Z,97591.53
2018-12-27T08:51:15.726Z,97584.53
2018-12-27T08:53:46.999Z,97587.27
2018-12-27T08:56:17.945Z,97590.97
2018-12-27T08:58:49.484Z,97597.27
2018-12-27T09:01:20.437Z,97591.66
2018-12-27T09:03:51.464Z,97591.03
2018-12-27T09:06:22.489Z,97591.03
2018-12-27T09:08:53.467Z,97590.25
2018-12-27T09:11:24.418Z,97595.53
2018-12-27T09:13:55.377Z,97596.03
2018-12-27T09:16:26.451Z,97590.49
2018-12-27T09:18:57.689Z,97588.16
2018-12-27T09:21:28.627Z,97591.62
2018-12-27T09:23:59.574Z,97591.33
2018-12-27T09:26:31.103Z,97589.91
2018-12-27T09:29:02.067Z,97582.09
2018-12-27T09:31:33.887Z,97586.41
2018-12-27T09:34:04.886Z,97580.16
2018-12-27T09:36:35.815Z,97579.51
2018-12-27T09:39:08.504Z,97584.16
2018-12-27T09:41:39.455Z,97582.16
2018-12-27T09:44:11.096Z,97580.92
2018-12-27T09:46:42.296Z,97586.37
2018-12-27T09:49:13.368Z,97579.86
2018-12-27T09:51:44.710Z,97581.63
2018-12-27T09:54:15.683Z,97578.70
2018-12-27T09:56:47.111Z,97573.47
2018-12-27T09:59:18.072Z,97569.81
2018-12-27T10:01:53.093Z,97573.77
2018-12-27T10:04:24.422Z,97573.72
2018-12-27T10:06:55.459Z,97569.87
2018-12-27T10:09:27.100Z,97571.69
2018-12-27T10:11:58.366Z,97569.88
2018-12-27T10:14:29.389Z,97571.69
2018-12-27T10:17:00.732Z,97575.69
2018-12-27T10:19:31.724Z,97574.19
2018-12-27T10:22:03.766Z,97566.48
2018-12-27T10:24:34.792Z,97571.19
2018-12-27T10:27:06.335Z,97565.14
2018-12-27T10:29:37.394Z,97573.19
2018-12-27T10:32:08.594Z,97568.70
2018-12-27T10:34:39.875Z,97562.56
2018-12-27T10:37:10.905Z,97561.66
2018-12-27T10:39:42.105Z,97558.36
2018-12-27T10:42:13.100Z,97552.32
2018-12-27T10:44:44.170Z,97550.19
2018-12-27T10:47:15.131Z,97540.78
2018-12-27T10:49:47.343Z,97540.33
2018-12-27T10:52:18.411Z,97536.16
2018-12-27T10:54:49.934Z,97525.48
2018-12-27T10:57:20.956Z,97516.07
2018-12-27T10:59:52.320Z,97514.64
2018-12-27T11:02:23.604Z,97519.72
2018-12-27T11:04:55.336Z,97510.60
2018-12-27T11:07:26.372Z,97503.55
2018-12-27T11:09:57.341Z,97497.48
2018-12-27T11:12:28.554Z,97500.48
2018-12-27T11:14:59.505Z,97493.97
2018-12-27T11:17:30.556Z,97489.89
2018-12-27T11:20:01.985Z,97486.20
2018-12-27T11:22:34.295Z,97483.11
2018-12-27T11:25:05.427Z,97474.98
2018-12-27T11:27:36.813Z,97476.33
2018-12-27T11:30:08.681Z,97472.88
2018-12-27T11:32:39.743Z,97465.73
2018-12-27T11:35:11.098Z,97469.64
2018-12-27T11:37:42.169Z,97459.68
2018-12-27T11:40:13.115Z,97456.13
2018-12-27T11:42:44.093Z,97457.77
2018-12-27T11:45:15.578Z,97449.42
2018-12-27T11:47:47.573Z,97452.86
2018-12-27T11:50:19.507Z,97449.27
2018-12-27T11:52:50.983Z,97447.16
2018-12-27T11:55:22.015Z,97443.72
2018-12-27T11:57:52.976Z,97444.05
2018-12-27T12:00:24.007Z,97442.41
2018-12-27T12:02:55.372Z,97436.53
2018-12-27T12:05:26.489Z,97444.35
2018-12-27T12:07:57.720Z,97436.00
2018-12-27T12:10:28.733Z,97434.53
2018-12-27T12:13:00.000Z,97434.98
2018-12-27T12:15:30.963Z,97430.44
2018-12-27T12:18:01.932Z,97419.16
2018-12-27T12:20:35.715Z,97420.16
2018-12-27T12:23:06.852Z,97420.02
2018-12-27T12:25:37.909Z,97418.70
2018-12-27T12:28:09.321Z,97418.15
2018-12-27T12:30:40.395Z,97412.94
2018-12-27T12:33:11.347Z,97415.59
2018-12-27T12:35:42.329Z,97405.45
2018-12-27T12:38:13.628Z,97408.67
2018-12-27T12:40:44.999Z,97408.03
2018-12-27T12:43:15.988Z,97411.45
2018-12-27T12:45:48.689Z,97409.52
2018-12-27T12:48:20.097Z,97407.20
2018-12-27T12:50:51.122Z,97408.22
2018-12-27T12:53:22.406Z,97409.83
2018-12-27T12:55:53.493Z,97406.75
2018-12-27T12:58:24.780Z,97405.86
2018-12-27T13:00:55.839Z,97404.10
2018-12-27T13:03:26.877Z,97400.79
2018-12-27T13:05:57.841Z,97402.09
2018-12-27T13:08:29.017Z,97406.30
2018-12-27T13:11:00.008Z,97409.29
2018-12-27T13:13:30.986Z,97407.50
2018-12-27T13:16:01.945Z,97410.86
2018-12-27T13:18:33.432Z,97405.33
2018-12-27T13:21:05.073Z,97403.20
2018-12-27T13:23:38.171Z,97406.41
2018-12-27T13:26:09.408Z,97402.14
2018-12-27T13:28:41.072Z,97394.10
2018-12-27T13:31:12.030Z,97396.61
2018-12-27T13:33:43.012Z,97391.23
2018-12-27T13:36:14.003Z,97390.52
2018-12-27T13:38:46.738Z,97392.80
2018-12-27T13:41:17.936Z,97389.88
2018-12-27T13:43:49.804Z,97391.39
2018-12-27T13:46:21.414Z,97385.98
2018-12-27T13:48:52.699Z,97386.71
2018-12-27T13:51:23.690Z,97384.69
2018-12-27T13:53:54.998Z,97382.70
2018-12-27T13:56:26.209Z,97383.27
2018-12-27T13:58:57.200Z,97389.27
2018-12-27T14:01:28.192Z,97386.78
2018-12-27T14:03:59.276Z,97390.30
2018-12-27T14:06:32.861Z,97388.00
2018-12-27T14:09:04.631Z,97387.14
2018-12-27T14:11:36.538Z,97383.25
2018-12-27T14:14:07.569Z,97386.01
2018-12-27T14:16:38.574Z,97382.38
2018-12-27T14:19:11.145Z,97386.14
2018-12-27T14:21:42.453Z,97383.83
2018-12-27T14:24:13.438Z,97386.77
2018-12-27T14:26:44.468Z,97382.33
2018-12-27T14:29:15.816Z,97386.89
2018-12-27T14:31:47.792Z,97386.69
2018-12-27T14:34:18.832Z,97381.03
2018-12-27T14:36:49.788Z,97385.92
2018-12-27T14:39:20.773Z,97395.74
2018-12-27T14:41:51.822Z,97395.87
2018-12-27T14:44:23.833Z,97398.78
2018-12-27T14:46:54.860Z,97397.88
2018-12-27T14:49:25.868Z,97401.39
2018-12-27T14:51:57.185Z,97392.63
2018-12-27T14:54:28.406Z,97397.48
2018-12-27T14:56:59.419Z,97397.32
2018-12-27T14:59:30.409Z,97394.69
2018-12-27T15:02:01.358Z,97400.53
2018-12-27T15:04:32.927Z,97398.50
2018-12-27T15:07:04.237Z,97399.23
2018-12-27T15:09:35.551Z,97398.53
2018-12-27T15:12:07.133Z,97393.26
2018-12-27T15:14:38.675Z,97402.47
2018-12-27T15:17:11.225Z,97395.74
2018-12-27T15:19:42.544Z,97395.72
2018-12-27T15:22:13.739Z,97397.34
2018-12-27T15:24:45.205Z,97392.36
2018-12-27T15:27:16.150Z,97395.63
2018-12-27T15:29:48.033Z,97395.77
2018-12-27T15:32:19.219Z,97395.63
2018-12-27T15:34:50.831Z,97390.73
2018-12-27T15:37:21.793Z,97395.14
2018-12-27T15:39:53.052Z,97397.73
2018-12-27T15:42:24.276Z,97403.56
2018-12-27T15:44:55.288Z,97397.58
2018-12-27T15:47:26.978Z,97400.55
2018-12-27T15:49:58.324Z,97402.36
2018-12-27T15:52:29.279Z,97405.62
2018-12-27T15:55:00.269Z,97410.11
2018-12-27T15:57:31.216Z,97404.43
2018-12-27T16:00:02.492Z,97414.06
2018-12-27T16:02:34.514Z,97416.31
2018-12-27T16:05:05.631Z,97418.38
2018-12-27T16:07:36.587Z,97420.84
2018-12-27T16:10:08.050Z,97422.61
2018-12-27T16:12:39.008Z,97421.28
2018-12-27T16:15:10.401Z,97420.98
2018-12-27T16:17:42.270Z,97426.93
2018-12-27T16:20:13.264Z,97424.59
2018-12-27T16:22:44.220Z,97428.96
2018-12-27T16:25:15.828Z,97435.11
2018-12-27T16:27:47.032Z,97429.40
2018-12-27T16:30:18.066Z,97430.84
2018-12-27T16:32:49.369Z,97427.09
2018-12-27T16:35:20.671Z,97422.30
2018-12-27T16:37:51.746Z,97420.42
2018-12-27T16:40:23.179Z,97425.37
2018-12-27T16:42:54.508Z,97420.75
2018-12-27T16:45:26.084Z,97414.20
2018-12-27T16:47:57.417Z,97411.23
2018-12-27T16:50:28.812Z,97410.77
2018-12-27T16:52:59.767Z,97421.22
2018-12-27T16:55:30.768Z,97418.39
2018-12-27T16:58:02.077Z,97416.34
2018-12-27T17:00:33.065Z,97419.34
2018-12-27T17:03:04.379Z,97417.53
2018-12-27T17:05:35.355Z,97417.60
2018-12-27T17:08:06.304Z,97420.35
2018-12-27T17:10:37.766Z,97409.31
2018-12-27T17:13:09.139Z,97416.91
2018-12-27T17:15:40.395Z,97414.12
2018-12-27T17:18:11.346Z,97417.93
2018-12-27T17:20:43.597Z,97419.41
2018-12-27T17:23:15.092Z,97416.66
2018-12-27T17:25:46.538Z,97416.87
2018-12-27T17:28:17.818Z,97417.74
2018-12-27T17:30:48.805Z,97423.05
2018-12-27T17:33:20.039Z,97421.97
2018-12-27T17:38:21.066Z,97425.43
2018-12-27T17:40:52.075Z,97429.48
2018-12-27T17:43:23.117Z,97427.94
2018-12-27T17:45:54.883Z,97432.67
2018-12-27T17:48:26.856Z,97430.58
2018-12-27T17:50:57.879Z,97429.03
2018-12-27T17:53:28.984Z,97432.02
2018-12-27T17:55:59.985Z,97435.06
2018-12-27T17:58:31.575Z,97437.47
2018-12-27T18:01:02.652Z,97430.83
2018-12-27T18:03:34.475Z,97434.86
2018-12-27T18:06:05.823Z,97430.41
2018-12-27T18:08:36.855Z,97430.08
2018-12-27T18:11:07.846Z,97432.59
2018-12-27T18:13:38.873Z,97429.86
2018-12-27T18:16:09.894Z,97426.56
2018-12-27T18:18:41.338Z,97424.20
2018-12-27T18:21:12.316Z,97427.81
2018-12-27T18:23:43.586Z,97427.39
2018-12-27T18:26:14.682Z,97430.78
2018-12-27T18:28:45.631Z,97433.62
2018-12-27T18:31:16.860Z,97427.35
2018-12-27T18:33:47.808Z,97434.19
2018-12-27T18:36:18.788Z,97431.30
2018-12-27T18:38:50.798Z,97429.36
2018-12-27T18:41:21.867Z,97428.94
2018-12-27T18:43:53.059Z,97425.41
2018-12-27T18:46:24.344Z,97434.05
2018-12-27T18:48:55.573Z,97434.33
2018-12-27T18:51:26.552Z,97425.31
2018-12-27T18:53:57.764Z,97440.45
2018-12-27T18:56:28.983Z,97431.87
2018-12-27T18:59:00.031Z,97434.09
2018-12-27T19:01:31.038Z,97438.00
2018-12-27T19:04:02.041Z,97434.00
2018-12-27T19:06:33.589Z,97437.77
2018-12-27T19:09:07.083Z,97440.26
2018-12-27T19:12:32.443Z,97440.36
2018-12-27T19:15:12.478Z,97443.02
2018-12-27T19:17:59.459Z,97452.08
2018-12-27T19:20:31.423Z,97455.70
2018-12-27T19:23:22.641Z,97455.01
2018-12-27T19:25:53.905Z,97453.70
2018-12-27T19:28:25.743Z,97451.52
2018-12-27T19:30:56.732Z,97448.78
2018-12-27T19:33:27.921Z,97447.24
2018-12-27T19:35:59.482Z,97448.83
2018-12-27T19:38:30.914Z,97449.66
2018-12-27T19:41:01.960Z,97453.61
2018-12-27T19:43:33.182Z,97452.59
2018-12-27T19:46:04.880Z,97449.98
2018-12-27T19:48:35.879Z,97452.77
2018-12-27T19:51:06.885Z,97454.67
2018-12-27T19:53:37.829Z,97455.20
2018-12-27T19:56:08.902Z,97453.09
2018-12-27T19:58:39.863Z,97450.49
2018-12-27T20:01:11.156Z,97451.15
2018-12-27T20:03:43.099Z,97455.29
2018-12-27T20:06:14.437Z,97455.38
2018-12-27T20:08:45.390Z,97447.20
2018-12-27T20:11:16.763Z,97454.63
2018-12-27T20:13:49.017Z,97459.38
2018-12-27T20:16:21.020Z,97463.59
2018-12-27T20:18:51.971Z,97462.39
2018-12-27T20:21:23.024Z,97455.89
2018-12-27T20:23:54.389Z,97460.12
2018-12-27T20:26:25.471Z,97457.61
2018-12-27T20:28:56.472Z,97456.73
2018-12-27T20:31:27.542Z,97459.55
2018-12-27T20:33:59.993Z,97452.45
2018-12-27T20:36:31.123Z,97452.08
2018-12-27T20:39:02.073Z,97458.03
2018-12-27T20:41:33.237Z,97455.52
2018-12-27T20:44:04.336Z,97458.95
2018-12-27T20:46:35.430Z,97456.50
2018-12-27T20:49:06.423Z,97461.70
2018-12-27T20:51:37.417Z,97459.79
2018-12-27T20:54:08.376Z,97461.56
2018-12-27T20:56:39.488Z,97458.16
2018-12-27T20:59:10.516Z,97458.81
2018-12-27T21:01:41.528Z,97458.25
2018-12-27T21:04:12.482Z,97450.40
2018-12-27T21:06:43.552Z,97449.52
2018-12-27T21:09:14.861Z,97452.50
2018-12-27T21:11:45.922Z,97451.34
2018-12-27T21:14:16.889Z,97445.62
2018-12-27T21:16:49.366Z,97442.64
2018-12-27T21:19:20.386Z,97444.97
2018-12-27T21:21:51.682Z,97447.97
2018-12-27T21:24:23.149Z,97446.63
2018-12-27T21:26:55.696Z,97447.24
2018-12-27T21:29:27.739Z,97451.69
2018-12-27T21:31:58.824Z,97450.95
2018-12-27T21:34:29.812Z,97452.30
2018-12-27T21:37:01.168Z,97456.89
2018-12-27T21:39:32.128Z,97453.09
2018-12-27T21:42:03.181Z,97448.72
2018-12-27T21:44:34.176Z,97447.10
2018-12-27T21:47:05.239Z,97444.27
2018-12-27T21:49:36.670Z,97450.84
2018-12-27T21:52:07.681Z,97449.55
2018-12-27T21:54:39.336Z,97447.33
2018-12-27T21:57:10.351Z,97456.39
2018-12-27T21:59:41.306Z,97455.19
2018-12-27T22:02:12.633Z,97465.84
2018-12-27T22:04:43.676Z,97465.36
2018-12-27T22:07:14.706Z,97460.21
2018-12-27T22:09:46.011Z,97457.89
2018-12-27T22:12:16.993Z,97459.41
2018-12-27T22:14:49.136Z,97463.73
2018-12-27T22:17:20.696Z,97461.66
2018-12-27T22:19:51.734Z,97464.85
2018-12-27T22:22:23.263Z,97458.91
2018-12-27T22:24:54.227Z,97453.05
2018-12-27T22:27:25.218Z,97459.92
2018-12-27T22:29:56.488Z,97460.45
2018-12-27T22:32:28.232Z,97458.34
2018-12-27T22:34:59.903Z,97459.51
2018-12-27T22:37:30.986Z,97451.75
2018-12-27T22:40:02.702Z,97447.70
2018-12-27T22:42:33.679Z,97448.22
2018-12-27T22:45:04.782Z,97451.84
2018-12-27T22:47:35.804Z,97454.73
2018-12-27T22:50:07.784Z,97448.59
2018-12-27T22:52:39.504Z,97438.28
2018-12-27T22:55:10.505Z,97442.42
2018-12-27T22:57:41.550Z,97430.88
2018-12-27T23:00:21.850Z,97436.27
2018-12-27T23:02:53.667Z,97434.78
2018-12-27T23:05:25.609Z,97442.78
2018-12-27T23:07:56.892Z,97432.70
2018-12-27T23:10:27.851Z,97436.60
2018-12-27T23:12:59.819Z,97436.36
2018-12-27T23:15:30.922Z,97436.65
2018-12-27T23:18:01.908Z,97438.19
2018-12-27T23:20:34.211Z,97438.23
2018-12-27T23:23:05.467Z,97434.09
2018-12-27T23:25:36.467Z,97438.78
2018-12-27T23:28:07.466Z,97426.88
2018-12-27T23:30:38.605Z,97443.25
2018-12-27T23:33:09.592Z,97433.39
2018-12-27T23:35:40.547Z,97428.42
2018-12-27T23:38:11.736Z,97429.72
2018-12-27T23:40:42.765Z,97435.52
2018-12-27T23:43:14.094Z,97436.93
2018-12-27T23:45:45.333Z,97433.48
2018-12-27T23:48:16.415Z,97421.96
2018-12-27T23:50:47.361Z,97422.34
2018-12-27T23:53:18.394Z,97410.77
2018-12-27T23:55:49.892Z,97414.53
2018-12-27T23:58:21.145Z,97409.61
